Weather at Austin Straubel International Airport

Public forecast

Using degrees Fahrenheit for public forecast. Weather courtesy of forecast.io.

Current aviation weather report (METAR) for Austin Straubel International Airport

2024/05/29 16:53 (retrieved 55 minutes ago)

KGRB 291653Z 07009KT 10SM CLR 17/08 A3025 RMK AO2 SLP243 T01720083

Aviation forecast (TAF) for Austin Straubel International Airport

2024/05/29 12:27 (retrieved 5 hours ago)

TAF KGRB 291125Z 2912/3012 35006KT P6SM BKN080 FM291400 03011KT P6SM SCT250 FM292000 05009KT P6SM SKC FM300100 VRB03KT P6SM SKC